Idrinskoe, Russia
Current Conditions -  °F | °C
As of 11:30 AM on Monday 20 Oct 2014 (Local Time) from UNAA Reporting Station
Broken Clouds Broken Clouds  
Wind Chill: 13°   Ceiling: 13000
Heat Index: 19°   Visibility: 6mi
Dew Point: 16°   Wind: 4mph
Humidity: 86%   Direction: NA
Pressure: 30.03"   Gusts: NA
Location:  54.37°N, 92.13°E
Report Text: UNAA 200430Z VRB02MPS 9000 SCT006 BKN130 M07/M09 Q1017 NOSIGRMK QFE740 20190055
Loading
Personal Weather Stations






























Interactive Weather Map
Tropical Storm Tracking
New forecast layout! Learn more

10-Day Weather Forecast

Advertisements
Track Severe Weather on mobile